Terminal Aerodrome Forecast
Issued by NWS North Platte, NE

Home | Current Version | Previous Version | Text Only | Print | Product List | Glossary On
Versions: 1 2 3 4 5 6 7 8 9 10 11 12 13 14
000
FTUS43 KLBF 301735
TAFLBF
TAF
KLBF 301735Z 3018/3118 17008KT P6SM FEW200
     FM302300 20011KT P6SM -TSRA BKN050CB
     FM310100 23009KT P6SM -TSRA BKN050CB
      TEMPO 3101/3104 VRB25G45KT 2SM +TSRA BKN030CB
     FM310600 05009KT 4SM BR BKN050
     FM311200 36010KT P6SM SCT070=

USA.gov is the U.S. government's official web portal to all federal, state and local government web resources and services.